Time;durP1;ratioP1;P1;durP2;ratioP2;P2;SDS_P1;SDS_P2;PMS_P1;PMS_P2;Temp;Humidity;BMP_temperature;BMP_pressure;BME280_temperature;BME280_humidity;BME280_pressure;Samples;Min_cycle;Max_cycle;Signal;HPM_P1;HPM_P2
2022/11/18 00:00:54;;;;;;;2.33;0.90;;;;;;;6.16;100.00;95511.28;5035490;28;20037;-61
2022/11/18 00:03:22;;;;;;;1.15;0.52;;;;;;;6.27;100.00;95514.78;5033952;28;20150;-62
2022/11/18 00:05:55;;;;;;;1.20;0.52;;;;;;;6.30;100.00;95508.88;5034584;28;20099;-61
2022/11/18 00:08:24;;;;;;;1.92;0.60;;;;;;;6.24;100.00;95508.84;5044808;28;20458;-62
2022/11/18 00:10:51;;;;;;;0.98;0.52;;;;;;;6.25;100.00;95512.38;5044181;28;20045;-62
2022/11/18 00:16:09;;;;;;;2.03;0.70;;;;;;;6.16;100.00;95508.63;5053609;28;20041;-62
2022/11/18 00:18:36;;;;;;;2.15;0.70;;;;;;;6.16;100.00;95503.25;5043611;28;20037;-62
2022/11/18 00:21:06;;;;;;;1.80;0.60;;;;;;;6.14;100.00;95510.75;5025354;28;20073;-62
2022/11/18 00:23:32;;;;;;;1.67;0.75;;;;;;;6.11;100.00;95504.84;5030982;28;20344;-62
2022/11/18 00:26:04;;;;;;;3.65;0.88;;;;;;;6.07;100.00;95501.09;5035327;28;20037;-62
2022/11/18 00:28:31;;;;;;;2.85;1.00;;;;;;;6.06;100.00;95510.22;5030490;28;20778;-63
2022/11/18 00:31:06;;;;;;;1.48;0.77;;;;;;;6.07;100.00;95503.78;5042337;28;20124;-62
2022/11/18 00:33:33;;;;;;;3.08;1.10;;;;;;;6.10;100.00;95513.19;5043190;28;20449;-61
2022/11/18 00:36:00;;;;;;;3.60;1.02;;;;;;;6.05;100.00;95522.03;5044417;28;20068;-61
2022/11/18 00:38:27;;;;;;;4.05;1.20;;;;;;;6.05;100.00;95523.94;5045242;28;20045;-62
2022/11/18 00:41:02;;;;;;;3.22;0.93;;;;;;;6.08;100.00;95521.50;5043822;28;20090;-63
2022/11/18 00:43:29;;;;;;;1.65;0.90;;;;;;;6.15;100.00;95528.50;5054375;28;20095;-62
2022/11/18 00:45:56;;;;;;;3.80;1.02;;;;;;;6.10;100.00;95526.59;5040269;28;20107;-62
2022/11/18 00:48:23;;;;;;;2.63;0.82;;;;;;;6.10;100.00;95524.75;5045183;28;20073;-62
2022/11/18 00:50:52;;;;;;;2.72;0.70;;;;;;;6.12;100.00;95535.22;5028344;28;20080;-62
2022/11/18 00:53:20;;;;;;;1.65;0.85;;;;;;;6.15;100.00;95531.19;5035491;28;20076;-63
2022/11/18 00:55:47;;;;;;;1.60;0.60;;;;;;;6.18;100.00;95522.56;5029424;28;20044;-62
2022/11/18 00:58:14;;;;;;;1.17;0.43;;;;;;;6.19;100.00;95524.19;5039664;28;20046;-61
2022/11/18 01:00:47;;;;;;;2.40;0.80;;;;;;;6.20;100.00;95531.97;5028464;28;20151;-62
2022/11/18 01:03:13;;;;;;;2.05;0.70;;;;;;;6.19;100.00;95527.69;5037699;28;20076;-61
2022/11/18 01:05:40;;;;;;;2.58;0.85;;;;;;;6.25;100.00;95528.50;5028509;28;20140;-62
2022/11/18 01:08:09;;;;;;;0.88;0.50;;;;;;;6.23;100.00;95527.97;5041415;28;20488;-62
2022/11/18 01:10:36;;;;;;;2.40;0.80;;;;;;;6.21;100.00;95530.91;5047931;28;20132;-62
2022/11/18 01:13:20;;;;;;;3.05;0.70;;;;;;;6.22;100.00;95529.03;5045897;28;20095;-62
2022/11/18 01:15:51;;;;;;;3.00;0.77;;;;;;;6.24;100.00;95524.97;5048933;28;20091;-61
2022/11/18 01:18:21;;;;;;;2.33;0.60;;;;;;;6.24;100.00;95529.56;5040153;28;20057;-62
2022/11/18 01:20:48;;;;;;;2.42;0.68;;;;;;;6.24;100.00;95534.94;5047985;28;20523;-62
2022/11/18 01:23:15;;;;;;;1.23;0.50;;;;;;;6.28;100.00;95530.66;5047787;28;20448;-62
2022/11/18 01:25:44;;;;;;;2.05;0.50;;;;;;;6.24;100.00;95533.03;5048285;28;20041;-62
2022/11/18 01:28:11;;;;;;;4.00;0.90;;;;;;;6.25;100.00;95536.56;5045047;28;20049;-62
2022/11/18 01:30:40;;;;;;;2.45;0.70;;;;;;;6.24;100.00;95535.72;5037204;28;20417;-62
2022/11/18 01:33:07;;;;;;;1.63;0.52;;;;;;;6.23;100.00;95544.09;5047628;28;20591;-61
2022/11/18 01:35:35;;;;;;;2.28;0.77;;;;;;;6.21;100.00;95540.84;5047877;28;20496;-61
2022/11/18 01:38:03;;;;;;;4.68;0.68;;;;;;;6.22;100.00;95545.16;5047993;28;20037;-62
2022/11/18 01:40:30;;;;;;;1.63;0.80;;;;;;;6.21;100.00;95543.53;5047780;28;20129;-62
2022/11/18 01:42:57;;;;;;;2.15;0.63;;;;;;;6.22;100.00;95553.22;5039829;28;20049;-62
2022/11/18 01:45:27;;;;;;;1.90;0.60;;;;;;;6.15;100.00;95553.47;5033492;28;20068;-62
2022/11/18 01:47:59;;;;;;;2.10;0.73;;;;;;;6.14;100.00;95559.13;5047442;28;20110;-61
2022/11/18 01:50:27;;;;;;;2.15;0.65;;;;;;;6.19;100.00;95557.25;5030913;28;20080;-62
2022/11/18 01:52:58;;;;;;;2.90;0.43;;;;;;;6.19;100.00;95557.25;5031089;28;20080;-61
2022/11/18 01:55:30;;;;;;;1.00;0.50;;;;;;;6.21;100.00;95565.84;5042036;28;20116;-63
2022/11/18 01:58:23;;;;;;;;;;;;;;;6.26;100.00;95564.25;5047977;28;20044;-63
2022/11/18 02:00:49;;;;;;;1.33;1.05;;;;;;;6.24;100.00;95569.88;5018704;28;19948;-62
2022/11/18 02:03:16;;;;;;;2.53;0.40;;;;;;;6.21;100.00;95573.91;5038488;28;20105;-61
2022/11/18 02:05:46;;;;;;;2.72;0.82;;;;;;;6.29;100.00;95575.25;5026452;28;20041;-62
2022/11/18 02:08:13;;;;;;;0.93;0.50;;;;;;;6.24;100.00;95577.94;5038473;28;20045;-61
2022/11/18 02:10:41;;;;;;;1.55;0.30;;;;;;;6.19;100.00;95583.31;5047069;28;20044;-61
2022/11/18 02:13:07;;;;;;;1.25;0.50;;;;;;;6.18;100.00;95577.13;5050528;28;20111;-62
2022/11/18 02:15:40;;;;;;;1.05;0.45;;;;;;;6.20;100.00;95590.31;5067700;28;20048;-61
2022/11/18 02:18:22;;;;;;;1.27;0.47;;;;;;;6.20;100.00;95596.47;5050907;28;20037;-61
2022/11/18 02:20:52;;;;;;;0.45;0.35;;;;;;;6.24;100.00;95586.00;5047141;28;20049;-61
2022/11/18 02:23:56;;;;;;;2.20;0.50;;;;;;;6.27;100.00;95590.84;5040662;28;20045;-61
2022/11/18 02:26:53;;;;;;;0.20;0.10;;;;;;;6.29;100.00;95594.06;5046615;28;20045;-61
2022/11/18 02:29:25;;;;;;;1.63;0.30;;;;;;;6.45;100.00;95597.56;5034835;28;20049;-62
2022/11/18 02:32:03;;;;;;;0.30;0.20;;;;;;;6.52;100.00;95608.03;5026815;28;20496;-62
2022/11/18 02:35:09;;;;;;;1.30;0.35;;;;;;;6.43;100.00;95604.28;5046478;28;20531;-62
2022/11/18 02:37:47;;;;;;;1.95;0.40;;;;;;;6.33;100.00;95605.91;5027146;28;20464;-62
2022/11/18 02:40:55;;;;;;;3.00;0.47;;;;;;;6.35;100.00;95606.44;5045610;28;20048;-62
2022/11/18 02:43:31;;;;;;;0.52;0.20;;;;;;;6.35;100.00;95613.69;5031249;28;20045;-62
2022/11/18 02:46:02;;;;;;;0.95;0.30;;;;;;;6.44;100.00;95614.78;5032078;28;20050;-62
2022/11/18 02:48:32;;;;;;;0.65;0.22;;;;;;;6.44;100.00;95611.25;5034233;28;20044;-62
2022/11/18 02:51:02;;;;;;;1.27;0.30;;;;;;;6.38;100.00;95618.53;5026542;28;20148;-62
2022/11/18 02:53:30;;;;;;;1.17;0.20;;;;;;;6.47;100.00;95625.00;5036604;28;20524;-61
2022/11/18 02:55:59;;;;;;;1.63;0.60;;;;;;;6.37;100.00;95622.28;5046086;28;20120;-62
2022/11/18 02:58:25;;;;;;;2.22;0.43;;;;;;;6.32;100.00;95628.50;5041514;28;20661;-62
2022/11/18 03:00:54;;;;;;;2.55;0.50;;;;;;;6.29;100.00;95637.06;5026659;28;20045;-63
2022/11/18 03:03:32;;;;;;;1.15;0.40;;;;;;;6.29;100.00;95641.63;5034596;28;20120;-62
2022/11/18 03:06:33;;;;;;;2.08;0.50;;;;;;;6.21;100.00;95642.97;5044729;28;20053;-62
2022/11/18 03:09:18;;;;;;;4.65;0.70;;;;;;;6.16;100.00;95657.19;5040476;28;20040;-62
2022/11/18 03:12:09;;;;;;;2.42;0.60;;;;;;;6.11;100.00;95658.00;5044681;28;20056;-63
2022/11/18 03:15:13;;;;;;;1.85;0.57;;;;;;;6.14;100.00;95659.38;5062253;28;20072;-62
2022/11/18 03:17:49;;;;;;;1.58;0.50;;;;;;;6.14;100.00;95650.47;5048279;28;20041;-62
2022/11/18 03:20:48;;;;;;;1.08;0.35;;;;;;;6.03;100.00;95653.16;5029098;28;20057;-61
2022/11/18 03:23:30;;;;;;;1.20;0.43;;;;;;;6.05;100.00;95664.44;5032384;28;20037;-61
2022/11/18 03:26:08;;;;;;;1.60;0.52;;;;;;;5.93;100.00;95666.53;5045191;28;20500;-62
2022/11/18 03:28:54;;;;;;;0.93;0.38;;;;;;;5.91;100.00;95677.56;5036807;28;20052;-62
2022/11/18 03:31:28;;;;;;;1.20;0.60;;;;;;;5.90;100.00;95675.91;5028945;28;20531;-62
2022/11/18 03:34:04;;;;;;;2.30;0.47;;;;;;;5.89;100.00;95679.69;5045761;28;20055;-62
2022/11/18 03:36:37;;;;;;;1.38;0.60;;;;;;;5.87;100.00;95681.84;5044863;28;20068;-62
2022/11/18 03:39:07;;;;;;;1.20;0.60;;;;;;;5.86;100.00;95691.75;5046071;28;20098;-62
2022/11/18 03:41:48;;;;;;;1.58;0.63;;;;;;;5.92;100.00;95699.84;5044668;28;20067;-62
2022/11/18 03:44:30;;;;;;;0.50;0.30;;;;;;;5.90;100.00;95696.63;5046026;28;20045;-62
2022/11/18 03:47:09;;;;;;;;;;;;;;;5.88;100.00;95696.06;5045056;28;20107;-62
2022/11/18 03:49:43;;;;;;;0.32;0.30;;;;;;;5.78;100.00;95702.22;5035988;28;19929;-62
2022/11/18 03:52:17;;;;;;;0.13;0.10;;;;;;;5.81;100.00;95705.19;5025808;28;20128;-61
2022/11/18 03:54:47;;;;;;;0.95;0.20;;;;;;;5.79;100.00;95706.50;5042516;28;20550;-61
2022/11/18 03:57:24;;;;;;;1.00;0.10;;;;;;;5.72;100.00;95696.00;5044724;28;20068;-62
2022/11/18 04:00:05;;;;;;;0.75;0.20;;;;;;;5.56;100.00;95697.81;5029028;28;20142;-61
2022/11/18 04:02:32;;;;;;;1.40;0.50;;;;;;;5.49;100.00;95689.19;5025707;28;20111;-62
2022/11/18 04:05:01;;;;;;;0.95;0.30;;;;;;;5.47;100.00;95710.94;5044404;28;20711;-61
2022/11/18 04:07:45;;;;;;;1.13;0.20;;;;;;;5.41;100.00;95703.91;5044384;28;20065;-62
2022/11/18 04:10:16;;;;;;;1.95;0.28;;;;;;;5.40;100.00;95708.47;5025757;28;20069;-61
2022/11/18 04:12:49;;;;;;;0.80;0.30;;;;;;;5.31;100.00;95708.13;5039101;28;20045;-62
2022/11/18 04:15:16;;;;;;;0.10;0.10;;;;;;;5.25;100.00;95722.59;5066855;28;20044;-62
2022/11/18 04:17:43;;;;;;;1.65;0.20;;;;;;;5.19;100.00;95715.56;5054945;28;20045;-62
2022/11/18 04:20:17;;;;;;;1.42;0.30;;;;;;;5.24;100.00;95723.69;5034957;28;20123;-62
2022/11/18 04:22:44;;;;;;;2.53;0.20;;;;;;;5.41;100.00;95726.19;5029744;28;20072;-61
2022/11/18 04:25:10;;;;;;;1.55;0.28;;;;;;;5.43;100.00;95723.25;5048453;28;20044;-62
2022/11/18 04:27:37;;;;;;;0.80;0.50;;;;;;;5.43;100.00;95721.38;5047283;28;20064;-63
2022/11/18 04:30:05;;;;;;;2.17;0.32;;;;;;;5.58;100.00;95715.28;5048819;28;20041;-63
2022/11/18 04:32:32;;;;;;;0.38;0.20;;;;;;;5.64;100.00;95709.94;5048326;28;20053;-63
2022/11/18 04:34:58;;;;;;;1.10;0.30;;;;;;;5.71;100.00;95715.84;5049459;28;20037;-62
2022/11/18 04:37:25;;;;;;;2.10;0.30;;;;;;;5.76;100.00;95715.91;5048598;28;20041;-62
2022/11/18 04:39:51;;;;;;;1.45;0.40;;;;;;;5.73;100.00;95719.09;5049276;28;20124;-62
2022/11/18 04:42:18;;;;;;;1.58;0.30;;;;;;;5.67;100.00;95728.19;5047187;28;20049;-62
2022/11/18 04:44:44;;;;;;;0.50;0.22;;;;;;;5.57;100.00;95721.72;5049028;28;20493;-61
2022/11/18 04:47:11;;;;;;;0.95;0.50;;;;;;;5.51;100.00;95730.00;5039052;28;20590;-62
2022/11/18 04:49:37;;;;;;;1.95;0.30;;;;;;;5.52;100.00;95734.28;5039067;28;20073;-62
2022/11/18 04:52:04;;;;;;;0.80;0.20;;;;;;;5.53;100.00;95731.34;5029421;28;20037;-63
2022/11/18 04:54:31;;;;;;;0.22;0.20;;;;;;;5.56;100.00;95728.16;5040917;28;20045;-62
2022/11/18 04:56:57;;;;;;;0.20;0.10;;;;;;;5.54;100.00;95733.00;5048214;28;20045;-62
2022/11/18 04:59:27;;;;;;;0.75;0.25;;;;;;;5.42;100.00;95732.38;5046996;28;20029;-62
2022/11/18 05:01:54;;;;;;;0.95;0.38;;;;;;;5.49;100.00;95741.00;5047933;28;20069;-62
2022/11/18 05:04:26;;;;;;;1.88;0.20;;;;;;;5.52;100.00;95743.16;5049341;28;20045;-61
2022/11/18 05:06:53;;;;;;;1.70;0.30;;;;;;;5.44;100.00;95736.41;5048174;28;20455;-62
2022/11/18 05:09:20;;;;;;;0.60;0.40;;;;;;;5.33;100.00;95745.47;5048615;28;20041;-63
2022/11/18 05:14:35;;;;;;;1.45;0.38;;;;;;;5.32;100.00;95743.84;5064467;28;20446;-61
2022/11/18 05:17:04;;;;;;;0.35;0.25;;;;;;;5.36;100.00;95747.63;5056629;28;20041;-62
2022/11/18 05:19:31;;;;;;;0.90;0.40;;;;;;;5.33;100.00;95745.47;5039159;28;20134;-62
2022/11/18 05:21:57;;;;;;;1.90;0.85;;;;;;;5.37;100.00;95737.69;5030429;28;20076;-61
2022/11/18 05:24:24;;;;;;;0.73;0.40;;;;;;;5.42;100.00;95751.16;5043205;28;20083;-62
2022/11/18 05:26:51;;;;;;;1.42;0.60;;;;;;;5.41;100.00;95742.28;5048502;28;20041;-63
2022/11/18 05:29:19;;;;;;;1.30;0.60;;;;;;;5.42;100.00;95751.16;5043820;28;20056;-62
2022/11/18 05:31:47;;;;;;;2.63;0.95;;;;;;;5.36;100.00;95750.31;5046700;28;20045;-62
2022/11/18 05:34:15;;;;;;;2.10;0.73;;;;;;;5.43;100.00;95756.28;5048647;28;20638;-63
2022/11/18 05:36:41;;;;;;;2.03;0.60;;;;;;;5.34;100.00;95749.75;5047466;28;20703;-62
2022/11/18 05:39:08;;;;;;;2.78;0.95;;;;;;;5.33;100.00;95758.88;5054340;28;20696;-63
2022/11/18 05:44:20;;;;;;;1.98;0.88;;;;;;;5.36;100.00;95755.69;5048279;28;20069;-62
2022/11/18 05:46:46;;;;;;;1.75;0.70;;;;;;;5.36;100.00;95760.25;5047330;28;20048;-61
2022/11/18 05:49:13;;;;;;;0.77;0.50;;;;;;;5.47;100.00;95759.25;5045765;28;20107;-63
2022/11/18 05:51:39;;;;;;;0.77;0.20;;;;;;;5.50;100.00;95756.06;5047285;28;20049;-63
2022/11/18 05:54:08;;;;;;;2.17;0.38;;;;;;;5.51;100.00;95765.72;5047903;28;20079;-63
2022/11/18 05:56:38;;;;;;;1.15;0.50;;;;;;;5.42;100.00;95761.91;5047362;28;20124;-62
2022/11/18 05:59:05;;;;;;;1.17;0.50;;;;;;;5.51;100.00;95759.53;5042327;28;20044;-62
2022/11/18 06:01:35;;;;;;;1.17;0.60;;;;;;;5.54;100.00;95764.38;5046898;28;20124;-62
2022/11/18 06:04:05;;;;;;;1.45;0.50;;;;;;;5.63;100.00;95770.88;5037021;28;20574;-63
2022/11/18 06:06:32;;;;;;;1.27;0.47;;;;;;;5.64;100.00;95769.81;5047197;28;20057;-62
2022/11/18 06:09:02;;;;;;;1.40;0.52;;;;;;;5.60;100.00;95779.44;5041386;28;20557;-62
2022/11/18 06:11:39;;;;;;;1.05;0.32;;;;;;;5.59;100.00;95770.59;5037879;28;20072;-62
2022/11/18 06:14:13;;;;;;;1.58;0.52;;;;;;;5.58;100.00;95779.72;5047897;28;20508;-62
2022/11/18 06:16:46;;;;;;;1.92;0.68;;;;;;;5.59;100.00;95784.03;5039473;28;20124;-62
2022/11/18 06:19:13;;;;;;;1.27;0.60;;;;;;;5.59;100.00;95778.66;5054039;28;20126;-63
2022/11/18 06:21:39;;;;;;;2.95;0.73;;;;;;;5.63;100.00;95787.00;5032615;28;20053;-62
2022/11/18 06:24:08;;;;;;;2.97;1.70;;;;;;;5.65;100.00;95787.56;5043421;28;20044;-62
2022/11/18 06:26:36;;;;;;;3.13;1.00;;;;;;;5.66;100.00;95791.03;5045537;28;20041;-62
2022/11/18 06:29:05;;;;;;;3.97;0.90;;;;;;;5.71;100.00;95794.56;5037769;28;20140;-62
2022/11/18 06:31:32;;;;;;;2.03;0.75;;;;;;;5.70;100.00;95792.94;5044070;28;20049;-61
2022/11/18 06:33:58;;;;;;;2.70;1.05;;;;;;;5.69;100.00;95794.03;5037936;28;20127;-59
2022/11/18 06:36:25;;;;;;;1.38;0.60;;;;;;;5.68;100.00;95788.91;5043896;28;20043;-59
2022/11/18 06:38:51;;;;;;;0.88;0.47;;;;;;;5.62;100.00;95803.34;5044753;28;20128;-58
2022/11/18 06:41:18;;;;;;;1.38;0.50;;;;;;;5.53;100.00;95801.16;5050468;28;20045;-58
2022/11/18 06:43:44;;;;;;;1.48;0.60;;;;;;;5.56;100.00;95813.25;5037908;28;20135;-59
2022/11/18 06:49:02;;;;;;;1.48;0.60;;;;;;;5.65;100.00;95809.03;5034360;28;20045;-59
2022/11/18 06:51:29;;;;;;;0.68;0.30;;;;;;;5.64;100.00;95815.44;5036415;28;20111;-60
2022/11/18 06:53:55;;;;;;;1.40;0.70;;;;;;;5.63;100.00;95824.59;5038229;28;20056;-59
2022/11/18 06:56:23;;;;;;;2.05;0.55;;;;;;;5.66;100.00;95825.94;5044440;28;20064;-58
2022/11/18 06:58:54;;;;;;;1.70;0.63;;;;;;;5.59;100.00;95828.84;5040750;28;20044;-58
2022/11/18 07:01:23;;;;;;;2.42;0.90;;;;;;;5.69;100.00;95837.00;5037460;28;20664;-60
2022/11/18 07:03:51;;;;;;;4.68;0.70;;;;;;;5.60;100.00;95833.16;5044147;28;20037;-59
2022/11/18 07:06:20;;;;;;;3.20;0.70;;;;;;;5.62;100.00;95843.63;5043800;28;20064;-59
2022/11/18 07:08:48;;;;;;;1.45;0.60;;;;;;;5.60;100.00;95847.38;5044444;28;20598;-59
2022/11/18 07:11:18;;;;;;;2.35;0.22;;;;;;;5.55;100.00;95850.03;5043540;28;20124;-58
2022/11/18 07:13:46;;;;;;;0.57;0.20;;;;;;;5.60;100.00;95852.75;5044241;28;20045;-59
2022/11/18 07:16:19;;;;;;;2.38;0.60;;;;;;;5.57;100.00;95853.28;5055781;28;20084;-58
2022/11/18 07:18:46;;;;;;;1.85;0.70;;;;;;;5.52;100.00;95858.59;5044768;28;20045;-59
2022/11/18 07:21:16;;;;;;;1.40;0.70;;;;;;;5.58;100.00;95859.47;5043799;28;20068;-59
2022/11/18 07:23:43;;;;;;;1.60;0.60;;;;;;;5.65;100.00;95860.06;5054686;28;20044;-59
2022/11/18 07:26:10;;;;;;;1.25;0.30;;;;;;;5.79;100.00;95876.50;5046403;28;20040;-59
2022/11/18 07:28:36;;;;;;;0.70;0.30;;;;;;;5.88;100.00;95868.78;5037485;28;20550;-59
2022/11/18 07:31:09;;;;;;;0.43;0.20;;;;;;;5.82;100.00;95875.22;5040252;28;20048;-58
2022/11/18 07:33:36;;;;;;;0.17;0.17;;;;;;;5.78;100.00;95877.59;5044519;28;20059;-59
2022/11/18 07:36:06;;;;;;;0.45;0.30;;;;;;;5.77;100.00;95877.84;5044052;28;20049;-59
2022/11/18 07:38:32;;;;;;;0.38;0.20;;;;;;;5.76;100.00;95892.34;5044267;28;20037;-59
2022/11/18 07:41:14;;;;;;;0.75;0.35;;;;;;;5.76;100.00;95884.28;5042923;28;20049;-59
2022/11/18 07:43:41;;;;;;;;;;;;;;;5.70;100.00;95900.38;5046219;28;20116;-60
2022/11/18 07:46:20;;;;;;;0.55;0.40;;;;;;;5.71;100.00;95899.31;5048160;28;20682;-59
2022/11/18 07:48:49;;;;;;;1.45;0.40;;;;;;;5.64;100.00;95905.97;5044862;28;20447;-59
2022/11/18 07:51:18;;;;;;;2.17;0.40;;;;;;;5.69;100.00;95903.31;5042661;28;20133;-58
2022/11/18 07:53:45;;;;;;;0.25;0.22;;;;;;;5.67;100.00;95914.31;5031110;28;20463;-59
2022/11/18 07:56:12;;;;;;;0.50;0.20;;;;;;;5.66;100.00;95917.25;5042795;28;20048;-58
2022/11/18 07:58:40;;;;;;;0.93;0.20;;;;;;;5.65;100.00;95915.63;5037268;28;20037;-59
2022/11/18 08:01:15;;;;;;;0.43;0.20;;;;;;;5.66;100.00;95919.94;5026979;28;20131;-59
2022/11/18 08:03:43;;;;;;;0.47;0.20;;;;;;;5.68;100.00;95934.72;5025328;28;20128;-59
2022/11/18 08:06:13;;;;;;;0.20;0.20;;;;;;;5.72;100.00;95922.41;5040928;28;20102;-59
2022/11/18 08:08:40;;;;;;;0.32;0.30;;;;;;;5.76;100.00;95929.94;5045536;28;20527;-60
2022/11/18 08:11:09;;;;;;;0.35;0.20;;;;;;;5.75;100.00;95936.41;5045075;28;20634;-60
2022/11/18 08:13:36;;;;;;;1.65;0.40;;;;;;;5.76;100.00;95946.88;5053363;28;20068;-60
2022/11/18 08:16:04;;;;;;;0.60;0.30;;;;;;;5.75;100.00;95950.63;5065149;28;20074;-60
2022/11/18 08:18:31;;;;;;;0.43;0.30;;;;;;;5.81;100.00;95941.53;5064125;28;20634;-60
2022/11/18 08:21:04;;;;;;;0.75;0.30;;;;;;;5.90;100.00;95946.44;5044736;28;20052;-60
2022/11/18 08:23:31;;;;;;;0.20;0.20;;;;;;;5.96;100.00;95945.41;5041817;28;20049;-59
2022/11/18 08:26:12;;;;;;;2.85;0.70;;;;;;;5.95;100.00;95943.78;5043374;28;20056;-59
2022/11/18 08:28:42;;;;;;;1.58;0.93;;;;;;;5.95;100.00;95946.47;5036599;28;20513;-59
2022/11/18 08:31:30;;;;;;;1.10;0.73;;;;;;;5.94;100.00;95955.63;5040359;28;20921;-58
2022/11/18 08:34:02;;;;;;;0.28;0.22;;;;;;;6.02;100.00;95955.13;5043331;28;20454;-59
2022/11/18 08:36:30;;;;;;;;;;;;;;;6.03;100.00;95954.09;5035051;28;20041;-58
2022/11/18 08:38:59;;;;;;;1.90;0.80;;;;;;;6.10;100.00;95952.00;5043313;28;19928;-59
2022/11/18 08:41:32;;;;;;;1.30;0.40;;;;;;;6.05;100.00;95962.69;5042842;28;20163;-59
2022/11/18 08:44:04;;;;;;;1.25;0.77;;;;;;;6.12;100.00;95957.13;5042701;28;20059;-57
2022/11/18 08:46:33;;;;;;;0.10;0.10;;;;;;;6.16;100.00;95960.88;5053260;28;20727;-58
2022/11/18 08:49:00;;;;;;;1.17;0.75;;;;;;;6.14;100.00;95960.34;5046709;28;20124;-58
2022/11/18 08:51:27;;;;;;;9.13;6.75;;;;;;;6.19;100.00;95970.34;5040573;28;20044;-58
2022/11/18 08:53:54;;;;;;;0.30;0.30;;;;;;;6.18;100.00;95974.91;5042744;28;20041;-59
2022/11/18 08:56:22;;;;;;;8.75;5.07;;;;;;;6.17;100.00;95969.78;5035335;28;20409;-58
2022/11/18 08:58:50;;;;;;;2.60;2.03;;;;;;;6.13;100.00;95971.34;5036784;28;20048;-60
2022/11/18 09:01:16;;;;;;;2.25;0.93;;;;;;;6.19;100.00;95971.13;5043808;28;20052;-59
2022/11/18 09:03:43;;;;;;;2.45;1.10;;;;;;;6.22;100.00;95969.81;5046428;28;20151;-59
2022/11/18 09:06:15;;;;;;;1.10;0.60;;;;;;;6.23;100.00;95982.19;5046866;28;20061;-60
2022/11/18 09:08:42;;;;;;;3.10;2.28;;;;;;;6.26;100.00;95980.88;5046701;28;20041;-59
2022/11/18 09:11:11;;;;;;;0.43;0.32;;;;;;;6.23;100.00;95987.56;5046891;28;20459;-59
2022/11/18 09:13:38;;;;;;;3.35;1.75;;;;;;;6.19;100.00;95987.25;5044914;28;20550;-58
2022/11/18 09:16:27;;;;;;;1.10;0.60;;;;;;;6.27;100.00;95990.53;5046620;28;20148;-58
2022/11/18 09:18:55;;;;;;;2.08;0.50;;;;;;;6.23;100.00;95982.19;5047258;28;20041;-59
2022/11/18 09:21:23;;;;;;;1.42;1.00;;;;;;;6.28;100.00;95990.28;5045983;28;20048;-58
2022/11/18 09:23:50;;;;;;;1.38;1.27;;;;;;;6.28;100.00;96000.22;5046429;28;20516;-59
2022/11/18 09:26:19;;;;;;;3.83;2.22;;;;;;;6.34;100.00;95999.19;5046937;28;20060;-58
2022/11/18 09:28:46;;;;;;;3.05;1.70;;;;;;;6.40;100.00;95998.16;5038928;28;20073;-57
2022/11/18 09:31:16;;;;;;;3.17;1.30;;;;;;;6.41;100.00;96005.16;5040052;28;20041;-58
2022/11/18 09:33:43;;;;;;;4.15;1.33;;;;;;;6.49;100.00;96012.72;5046558;28;20060;-59
2022/11/18 09:36:16;;;;;;;2.75;1.00;;;;;;;6.62;100.00;96007.97;5045850;28;20076;-59
2022/11/18 09:38:43;;;;;;;3.70;1.08;;;;;;;6.72;100.00;96016.09;5046017;28;20068;-59
2022/11/18 09:41:46;;;;;;;2.33;1.10;;;;;;;6.82;100.00;96007.25;5045430;28;20091;-58
2022/11/18 09:44:30;;;;;;;2.20;1.15;;;;;;;6.87;100.00;96014.56;5046237;28;20041;-59
2022/11/18 09:46:59;;;;;;;6.20;1.90;;;;;;;6.87;100.00;96010.00;5043751;28;20107;-59
2022/11/18 09:49:39;;;;;;;5.22;1.73;;;;;;;6.91;100.00;96026.41;5046571;28;20072;-58
2022/11/18 09:52:11;;;;;;;4.70;2.00;;;;;;;6.95;100.00;96021.31;5058794;28;20154;-59
2022/11/18 09:54:38;;;;;;;3.67;1.33;;;;;;;7.01;100.00;96021.06;5054527;28;20057;-59
2022/11/18 09:57:16;;;;;;;3.78;1.80;;;;;;;7.08;100.00;96018.13;5049027;28;20047;-59
2022/11/18 09:59:43;;;;;;;3.42;1.30;;;;;;;7.08;100.00;96023.53;5051425;28;20110;-59
2022/11/18 10:02:41;;;;;;;3.35;1.40;;;;;;;6.98;100.00;96034.25;5047613;28;20103;-59
2022/11/18 10:05:21;;;;;;;5.80;1.70;;;;;;;6.95;100.00;96029.38;5045070;28;20512;-59
2022/11/18 10:07:53;;;;;;;2.95;1.50;;;;;;;6.97;100.00;96035.34;5045268;28;20037;-59
2022/11/18 10:10:36;;;;;;;2.78;1.58;;;;;;;6.95;100.00;96037.47;5052038;28;20044;-59
2022/11/18 10:13:22;;;;;;;9.18;1.90;;;;;;;6.97;100.00;96041.50;5047265;28;20128;-58
2022/11/18 10:15:59;;;;;;;3.65;1.35;;;;;;;6.98;100.00;96032.38;5045776;28;20052;-59
2022/11/18 10:18:37;;;;;;;4.38;1.48;;;;;;;7.09;100.00;96032.41;5046032;28;20095;-60
2022/11/18 10:21:53;;;;;;;3.55;1.40;;;;;;;7.16;100.00;96038.38;5045541;28;20674;-59
2022/11/18 10:24:25;;;;;;;3.80;2.15;;;;;;;7.30;100.00;96041.41;5028563;28;20086;-58
2022/11/18 10:26:57;;;;;;;3.92;1.48;;;;;;;7.36;100.00;96042.22;5045482;28;20090;-59
2022/11/18 10:29:24;;;;;;;4.38;1.45;;;;;;;7.33;100.00;96040.84;5041241;28;20048;-59
2022/11/18 10:32:01;;;;;;;3.80;2.45;;;;;;;7.25;100.00;96044.88;5045074;28;20044;-58
2022/11/18 10:34:31;;;;;;;3.78;1.60;;;;;;;7.17;100.00;96045.38;5045205;28;20075;-59
2022/11/18 10:37:05;;;;;;;2.92;1.60;;;;;;;7.17;100.00;96053.44;5045477;28;20064;-57
2022/11/18 10:39:32;;;;;;;3.65;1.70;;;;;;;7.22;100.00;96055.38;5042240;28;20475;-59
2022/11/18 10:42:06;;;;;;;5.65;2.65;;;;;;;7.18;100.00;96054.28;5040254;28;20041;-58
2022/11/18 10:44:32;;;;;;;6.60;2.17;;;;;;;7.11;100.00;96059.91;5045102;28;20072;-59
2022/11/18 10:47:25;;;;;;;3.85;1.77;;;;;;;6.97;100.00;96076.50;5045506;28;20060;-56
2022/11/18 10:49:52;;;;;;;;;;;;;;;7.09;100.00;96070.09;5041229;28;20052;-59
2022/11/18 10:52:22;;;;;;;2.90;1.45;;;;;;;7.10;100.00;96074.41;5044172;28;19960;-58
2022/11/18 10:55:27;;;;;;;4.63;1.20;;;;;;;7.12;100.00;96070.38;5045042;28;20051;-59
2022/11/18 10:58:01;;;;;;;1.60;0.90;;;;;;;7.11;100.00;96076.03;5020774;28;20081;-59
2022/11/18 11:00:36;;;;;;;3.75;1.67;;;;;;;7.10;100.00;96075.22;5032565;28;20528;-58
2022/11/18 11:03:22;;;;;;;2.42;0.80;;;;;;;7.14;100.00;96075.50;5057906;28;20556;-59
2022/11/18 11:06:29;;;;;;;2.55;1.27;;;;;;;7.08;100.00;96074.66;5044895;28;20045;-57
2022/11/18 11:09:03;;;;;;;2.72;1.13;;;;;;;7.03;100.00;96074.63;5044762;28;20091;-57
2022/11/18 11:11:38;;;;;;;3.00;1.38;;;;;;;7.01;100.00;96079.50;5032415;28;20119;-59
2022/11/18 11:14:16;;;;;;;3.55;1.73;;;;;;;7.13;100.00;96076.59;5047335;28;20123;-59
2022/11/18 11:17:03;;;;;;;5.13;1.50;;;;;;;7.20;100.00;96079.03;5044484;28;20040;-59
2022/11/18 11:19:38;;;;;;;2.83;1.33;;;;;;;7.37;100.00;96076.16;5042826;28;20101;-59
2022/11/18 11:22:09;;;;;;;5.30;1.30;;;;;;;7.41;100.00;96069.97;5048313;28;20666;-56
2022/11/18 11:24:36;;;;;;;2.40;1.20;;;;;;;7.51;100.00;96073.75;5044608;28;20541;-57
2022/11/18 11:27:11;;;;;;;3.97;1.40;;;;;;;7.54;100.00;96074.06;5043822;28;20107;-58
2022/11/18 11:30:04;;;;;;;2.47;0.70;;;;;;;7.45;100.00;96082.91;5040249;28;20055;-58
2022/11/18 11:32:55;;;;;;;4.05;1.15;;;;;;;7.50;100.00;96075.66;5038284;28;20079;-59
2022/11/18 11:35:28;;;;;;;7.35;1.83;;;;;;;7.56;100.00;96073.81;5043530;28;20049;-56
2022/11/18 11:38:10;;;;;;;2.05;1.00;;;;;;;7.53;100.00;96077.03;5043724;28;20292;-55
2022/11/18 11:40:44;;;;;;;;;;;;;;;7.51;100.00;96093.44;5044274;28;20076;-58
2022/11/18 11:43:43;;;;;;;5.18;1.45;;;;;;;7.52;100.00;96088.88;5056896;28;19931;-58
2022/11/18 11:47:45;;;;;;;1.92;1.00;;;;;;;7.47;100.00;96099.59;5026514;28;20068;-57
2022/11/18 11:49:51;;;;;;;2.78;1.00;;;;;;;7.41;100.00;96086.13;5045498;28;20045;-57
2022/11/18 11:52:33;;;;;;;1.52;1.00;;;;;;;7.38;100.00;96089.34;5043857;28;20049;-57
2022/11/18 11:54:59;;;;;;;3.15;0.90;;;;;;;7.27;100.00;96093.06;5043869;28;20087;-55
2022/11/18 11:57:40;;;;;;;3.10;0.88;;;;;;;7.22;100.00;96103.81;5041678;28;20041;-55
2022/11/18 12:00:12;;;;;;;3.60;1.05;;;;;;;7.20;100.00;96085.25;5025821;28;20673;-58
2022/11/18 12:02:50;;;;;;;4.05;1.00;;;;;;;7.16;100.00;96101.09;5039989;28;20068;-59
2022/11/18 12:05:34;;;;;;;3.15;1.45;;;;;;;7.20;100.00;96096.00;5046080;28;20095;-59
2022/11/18 12:08:08;;;;;;;4.20;1.45;;;;;;;7.13;100.00;96096.25;5045802;28;20048;-58
2022/11/18 12:10:48;;;;;;;4.18;1.65;;;;;;;7.18;100.00;96094.66;5043334;28;20091;-58